Time;durP1;ratioP1;P1;durP2;ratioP2;P2;SDS_P1;SDS_P2;PMS_P1;PMS_P2;Temp;Humidity;BMP_temperature;BMP_pressure;BME280_temperature;BME280_humidity;BME280_pressure;Samples;Min_cycle;Max_cycle;Signal;HPM_P1;HPM_P2
2023/03/25 00:01:32;;;;;;;1.80;0.60;;;8.50;99.90;;;;;;4994448;28;20548;-68
2023/03/25 00:03:59;;;;;;;2.60;0.80;;;8.40;99.90;;;;;;4995339;28;20455;-68
2023/03/25 00:06:26;;;;;;;4.00;0.80;;;8.30;99.90;;;;;;5001862;28;20956;-68
2023/03/25 00:08:52;;;;;;;0.93;0.80;;;8.30;99.90;;;;;;4992791;28;20489;-68
2023/03/25 00:11:17;;;;;;;0.80;0.70;;;8.20;99.90;;;;;;4995803;28;20940;-69
2023/03/25 00:13:43;;;;;;;1.67;0.70;;;8.20;99.90;;;;;;4995669;28;20183;-68
2023/03/25 00:16:09;;;;;;;1.00;0.60;;;8.20;99.90;;;;;;4994987;28;20193;-68
2023/03/25 00:18:36;;;;;;;1.70;0.70;;;8.10;99.90;;;;;;4999594;28;20652;-68
2023/03/25 00:21:04;;;;;;;1.07;0.80;;;8.10;99.90;;;;;;4995794;28;20458;-68
2023/03/25 00:23:31;;;;;;;1.50;0.87;;;8.00;99.90;;;;;;4994611;28;20437;-68
2023/03/25 00:25:59;;;;;;;3.90;0.80;;;8.00;99.90;;;;;;4990159;28;20438;-68
2023/03/25 00:28:27;;;;;;;1.17;0.60;;;8.00;99.90;;;;;;4994552;28;20434;-69
2023/03/25 00:30:53;;;;;;;1.43;0.70;;;7.90;99.90;;;;;;4994395;28;20574;-69
2023/03/25 00:33:21;;;;;;;1.20;0.90;;;7.90;99.90;;;;;;4994857;28;20573;-69
2023/03/25 00:35:51;;;;;;;1.27;0.50;;;7.80;99.90;;;;;;4995113;28;20175;-68
2023/03/25 00:38:17;;;;;;;1.47;0.77;;;7.70;99.90;;;;;;4993313;28;20871;-68
2023/03/25 00:40:42;;;;;;;2.33;0.70;;;7.70;99.90;;;;;;4993507;28;20493;-68
2023/03/25 00:43:10;;;;;;;2.70;0.90;;;7.70;99.90;;;;;;4990704;28;20245;-68
2023/03/25 00:45:35;;;;;;;4.10;1.00;;;7.70;99.90;;;;;;4994458;28;20725;-68
2023/03/25 00:48:01;;;;;;;0.93;0.77;;;7.60;99.90;;;;;;4994068;28;20558;-68
2023/03/25 00:50:26;;;;;;;1.30;0.87;;;7.50;99.90;;;;;;4991841;28;20176;-68
2023/03/25 00:52:53;;;;;;;0.77;0.73;;;7.50;99.90;;;;;;4994342;28;20280;-68
2023/03/25 00:55:19;;;;;;;3.00;1.23;;;7.50;99.90;;;;;;4994558;28;20187;-68
2023/03/25 00:57:44;;;;;;;1.80;0.80;;;7.50;99.90;;;;;;4993926;28;20446;-68
2023/03/25 01:00:14;;;;;;;5.30;1.17;;;7.50;99.90;;;;;;4992472;28;20289;-68
2023/03/25 01:02:39;;;;;;;4.00;1.20;;;7.50;99.90;;;;;;4994608;28;20223;-68
2023/03/25 01:05:06;;;;;;;1.57;1.20;;;7.60;99.90;;;;;;4994612;28;20466;-69
2023/03/25 01:07:31;;;;;;;3.30;1.47;;;7.50;99.90;;;;;;4986352;28;20183;-68
2023/03/25 01:09:57;;;;;;;1.03;0.87;;;7.50;99.90;;;;;;4993048;28;20500;-68
2023/03/25 01:12:25;;;;;;;1.47;0.90;;;7.50;99.90;;;;;;4992799;28;20206;-68
2023/03/25 01:14:51;;;;;;;2.00;0.90;;;7.40;99.90;;;;;;4992497;28;20445;-69
2023/03/25 01:17:16;;;;;;;5.27;1.30;;;7.40;99.90;;;;;;4993959;28;20458;-68
2023/03/25 01:19:42;;;;;;;3.50;1.00;;;7.40;99.90;;;;;;4993603;28;20458;-69
2023/03/25 01:22:08;;;;;;;1.90;1.23;;;7.40;99.90;;;;;;4993528;28;20686;-68
2023/03/25 01:24:33;;;;;;;2.43;1.23;;;7.40;99.90;;;;;;4993718;28;20680;-69
2023/03/25 01:26:59;;;;;;;2.13;1.10;;;7.40;99.90;;;;;;4993977;28;20222;-69
2023/03/25 01:29:25;;;;;;;2.50;0.97;;;7.40;99.90;;;;;;4994553;28;20194;-69
2023/03/25 01:31:52;;;;;;;3.37;1.70;;;7.40;99.90;;;;;;4993517;28;20273;-69
2023/03/25 01:34:18;;;;;;;1.90;1.20;;;7.40;99.90;;;;;;4994861;28;20560;-69
2023/03/25 01:36:47;;;;;;;6.10;1.43;;;7.40;99.90;;;;;;4994118;28;20444;-69
2023/03/25 01:39:17;;;;;;;3.03;1.13;;;7.40;99.90;;;;;;4992670;28;20513;-69
2023/03/25 01:41:45;;;;;;;2.10;1.13;;;7.40;99.90;;;;;;4993346;28;20473;-69
2023/03/25 01:44:13;;;;;;;2.10;1.30;;;7.50;99.90;;;;;;4994082;28;20445;-69
2023/03/25 01:46:43;;;;;;;2.00;0.77;;;7.60;99.90;;;;;;4995403;28;20458;-69
2023/03/25 01:49:23;;;;;;;4.50;1.30;;;7.70;99.90;;;;;;4993311;28;20434;-69
2023/03/25 01:52:22;;;;;;;5.20;1.00;;;7.80;99.90;;;;;;4992970;28;20470;-69
2023/03/25 01:54:51;;;;;;;3.67;1.20;;;7.80;99.90;;;;;;4990529;28;20450;-68
2023/03/25 01:57:20;;;;;;;3.20;1.10;;;7.80;99.90;;;;;;4993170;28;20434;-69
2023/03/25 01:59:46;;;;;;;3.87;1.10;;;7.80;99.90;;;;;;4992121;28;20549;-69
2023/03/25 02:02:16;;;;;;;4.93;1.10;;;7.80;99.90;;;;;;4993177;28;20906;-69
2023/03/25 02:04:59;;;;;;;2.40;0.90;;;7.80;99.90;;;;;;4993527;28;20435;-69
2023/03/25 02:07:34;;;;;;;7.03;1.17;;;7.80;99.90;;;;;;4992009;28;20438;-69
2023/03/25 02:10:03;;;;;;;4.63;1.30;;;7.70;99.90;;;;;;4992301;28;20438;-69
2023/03/25 02:12:29;;;;;;;2.17;0.90;;;7.70;99.90;;;;;;4992036;28;20504;-69
2023/03/25 02:14:56;;;;;;;1.07;0.97;;;7.60;99.90;;;;;;4993098;28;20430;-69
2023/03/25 02:17:46;;;;;;;1.67;0.93;;;7.60;99.90;;;;;;4991602;28;20660;-69
2023/03/25 02:20:36;;;;;;;4.43;1.33;;;7.60;99.90;;;;;;4991934;28;20477;-69
2023/03/25 02:23:20;;;;;;;2.83;1.10;;;7.60;99.90;;;;;;4992345;28;20959;-69
2023/03/25 02:25:57;;;;;;;1.60;1.10;;;7.50;99.90;;;;;;4992558;28;20478;-69
2023/03/25 02:28:24;;;;;;;3.00;1.70;;;7.60;99.90;;;;;;4992043;28;20524;-69
2023/03/25 02:31:02;;;;;;;2.30;1.20;;;7.60;99.90;;;;;;4994871;28;20453;-69
2023/03/25 02:34:00;;;;;;;4.90;1.47;;;7.60;99.90;;;;;;4991946;28;21071;-69
2023/03/25 02:36:29;;;;;;;1.87;1.10;;;7.70;99.90;;;;;;4991298;28;21865;-69
2023/03/25 02:39:22;;;;;;;4.13;1.07;;;7.70;99.90;;;;;;4991596;28;20466;-69
2023/03/25 02:42:00;;;;;;;2.17;1.17;;;7.70;99.90;;;;;;4987207;28;20458;-69
2023/03/25 02:44:41;;;;;;;1.63;1.07;;;7.60;99.90;;;;;;4992873;28;20534;-68
2023/03/25 02:47:15;;;;;;;3.03;1.00;;;7.60;99.90;;;;;;4992959;28;20441;-68
2023/03/25 02:49:45;;;;;;;8.87;2.17;;;7.50;99.90;;;;;;4991835;28;20533;-68
2023/03/25 02:52:26;;;;;;;3.20;1.30;;;7.50;99.90;;;;;;4992535;28;20481;-69
2023/03/25 02:55:00;;;;;;;1.77;0.90;;;7.40;99.90;;;;;;4990209;28;21209;-69
2023/03/25 02:57:27;;;;;;;2.27;1.20;;;7.40;99.90;;;;;;4992035;28;20433;-68
2023/03/25 02:59:55;;;;;;;2.63;0.93;;;7.40;99.90;;;;;;4991784;28;20470;-68
2023/03/25 03:02:24;;;;;;;1.37;0.80;;;7.40;99.90;;;;;;4990249;28;20473;-68
2023/03/25 03:04:52;;;;;;;1.43;0.90;;;7.40;99.90;;;;;;4991923;28;20446;-68
2023/03/25 03:07:28;;;;;;;0.97;0.87;;;7.40;99.90;;;;;;4992168;28;20447;-68
2023/03/25 03:10:03;;;;;;;1.17;0.90;;;7.30;99.90;;;;;;4990732;28;20508;-68
2023/03/25 03:12:43;;;;;;;1.53;0.87;;;7.30;99.90;;;;;;4992080;28;20497;-68
2023/03/25 03:15:37;;;;;;;1.20;0.87;;;7.20;99.90;;;;;;4991809;28;20434;-69
2023/03/25 03:18:25;;;;;;;2.30;0.87;;;7.20;99.90;;;;;;4986432;28;20445;-68
2023/03/25 03:21:10;;;;;;;3.00;0.60;;;7.10;99.90;;;;;;4980045;28;20537;-68
2023/03/25 03:23:50;;;;;;;2.27;1.00;;;7.10;99.90;;;;;;4985534;28;20493;-68
2023/03/25 03:26:40;;;;;;;3.13;0.93;;;7.00;99.90;;;;;;4991973;28;20454;-68
2023/03/25 03:29:25;;;;;;;1.00;0.77;;;7.00;99.90;;;;;;4987719;28;20528;-68
2023/03/25 03:32:13;;;;;;;0.70;0.70;;;7.00;99.90;;;;;;4991219;28;20829;-68
2023/03/25 03:34:55;;;;;;;1.70;0.70;;;6.90;99.90;;;;;;4983789;28;20443;-68
2023/03/25 03:37:28;;;;;;;0.93;0.83;;;6.90;99.90;;;;;;4994871;28;20478;-68
2023/03/25 03:39:56;;;;;;;1.47;0.73;;;6.90;99.90;;;;;;4991275;28;20463;-68
2023/03/25 03:42:29;;;;;;;1.70;0.83;;;6.80;99.90;;;;;;4991173;28;20979;-68
2023/03/25 03:45:01;;;;;;;0.60;0.53;;;6.80;99.90;;;;;;4991369;28;20454;-68
2023/03/25 03:47:31;;;;;;;1.90;0.73;;;6.70;99.90;;;;;;4991023;28;20442;-68
2023/03/25 03:49:59;;;;;;;0.93;0.60;;;6.70;99.90;;;;;;4993869;28;20438;-68
2023/03/25 03:52:39;;;;;;;2.30;0.70;;;6.70;99.90;;;;;;5012237;23;20504;-68
2023/03/25 03:55:21;;;;;;;1.00;0.53;;;6.70;99.90;;;;;;5011029;28;20438;-68
2023/03/25 03:58:01;;;;;;;1.00;0.60;;;6.70;99.90;;;;;;5004957;28;20436;-68
2023/03/25 04:00:35;;;;;;;1.43;0.63;;;6.70;99.90;;;;;;5007767;28;20476;-68
2023/03/25 04:03:27;;;;;;;0.50;0.50;;;6.70;99.90;;;;;;5011192;28;20450;-68
2023/03/25 04:06:01;;;;;;;1.00;0.70;;;6.70;99.90;;;;;;5004071;28;20434;-68
2023/03/25 04:08:32;;;;;;;1.23;0.70;;;6.70;99.90;;;;;;5004710;28;20496;-68
2023/03/25 04:11:06;;;;;;;0.60;0.53;;;6.70;99.90;;;;;;5011489;28;20441;-69
2023/03/25 04:13:35;;;;;;;0.90;0.50;;;6.80;99.90;;;;;;5005045;28;20453;-69
2023/03/25 04:16:01;;;;;;;0.63;0.63;;;6.70;99.90;;;;;;5010173;28;20445;-68
2023/03/25 04:18:27;;;;;;;0.67;0.50;;;6.80;99.90;;;;;;5008520;28;20530;-69
2023/03/25 04:20:56;;;;;;;1.57;0.57;;;6.80;99.90;;;;;;5010933;28;20207;-69
2023/03/25 04:23:21;;;;;;;1.53;0.70;;;6.80;99.90;;;;;;5009954;28;20457;-69
2023/03/25 04:25:52;;;;;;;0.90;0.80;;;6.80;99.90;;;;;;5007827;28;20431;-69
2023/03/25 04:28:18;;;;;;;3.20;0.87;;;6.70;99.90;;;;;;5008429;28;20183;-69
2023/03/25 04:30:45;;;;;;;1.13;0.80;;;6.80;99.90;;;;;;5004822;28;20436;-68
2023/03/25 04:33:11;;;;;;;1.20;0.60;;;6.80;99.90;;;;;;5007349;28;20453;-69
2023/03/25 04:35:39;;;;;;;0.70;0.70;;;6.80;99.90;;;;;;5011030;28;20479;-69
2023/03/25 04:38:05;;;;;;;1.90;0.80;;;6.80;99.90;;;;;;5007757;28;20457;-69
2023/03/25 04:40:31;;;;;;;0.97;0.70;;;6.80;99.90;;;;;;5010429;28;20481;-69
2023/03/25 04:42:57;;;;;;;1.23;0.80;;;6.80;99.90;;;;;;5013131;28;20469;-69
2023/03/25 04:45:24;;;;;;;3.57;0.90;;;6.70;99.90;;;;;;5014215;28;20460;-69
2023/03/25 04:47:53;;;;;;;1.33;0.60;;;6.70;99.90;;;;;;5014485;28;20309;-69
2023/03/25 04:50:24;;;;;;;1.83;0.70;;;6.70;99.90;;;;;;5020046;28;20432;-69
2023/03/25 04:52:51;;;;;;;2.50;0.60;;;6.70;99.90;;;;;;5002376;28;20987;-69
2023/03/25 04:55:18;;;;;;;2.30;0.70;;;6.70;99.90;;;;;;5011047;28;20437;-69
2023/03/25 04:57:48;;;;;;;3.50;1.20;;;6.70;99.90;;;;;;5013938;28;20438;-69
2023/03/25 05:00:19;;;;;;;1.07;0.97;;;6.70;99.90;;;;;;5012984;28;21117;-69
2023/03/25 05:02:46;;;;;;;1.77;0.90;;;6.60;99.90;;;;;;5013691;28;20469;-69
2023/03/25 05:05:19;;;;;;;2.20;1.23;;;6.60;99.90;;;;;;5013573;28;20429;-69
2023/03/25 05:07:49;;;;;;;2.73;0.90;;;6.60;99.90;;;;;;5000833;28;20425;-69
2023/03/25 05:10:16;;;;;;;1.23;0.90;;;6.50;99.90;;;;;;5010641;28;20448;-69
2023/03/25 05:12:41;;;;;;;2.20;1.20;;;6.50;99.90;;;;;;5008025;28;20829;-69
2023/03/25 05:15:09;;;;;;;1.83;1.00;;;6.60;99.90;;;;;;5010330;28;20441;-69
2023/03/25 05:17:34;;;;;;;1.57;0.83;;;6.60;99.90;;;;;;5010459;28;20190;-69
2023/03/25 05:20:00;;;;;;;1.77;1.13;;;6.60;99.90;;;;;;5013181;28;20461;-69
2023/03/25 05:22:25;;;;;;;1.73;1.10;;;6.60;99.90;;;;;;5009540;28;20261;-69
2023/03/25 05:24:52;;;;;;;5.80;1.20;;;6.70;99.90;;;;;;5010119;28;20185;-69
2023/03/25 05:27:19;;;;;;;2.60;1.20;;;6.80;99.90;;;;;;5021655;28;20175;-69
2023/03/25 05:29:45;;;;;;;2.30;1.60;;;6.90;99.90;;;;;;5011606;28;20434;-69
2023/03/25 05:32:12;;;;;;;1.67;1.00;;;7.00;99.90;;;;;;5022288;28;20489;-69
2023/03/25 05:34:38;;;;;;;1.43;1.33;;;7.00;99.90;;;;;;5013612;28;20953;-68
2023/03/25 05:37:04;;;;;;;1.70;1.10;;;7.10;99.90;;;;;;5012751;28;20860;-69
2023/03/25 05:39:30;;;;;;;1.77;1.10;;;7.10;99.90;;;;;;5012814;28;20457;-69
2023/03/25 05:42:01;;;;;;;7.00;1.57;;;7.10;99.90;;;;;;5011840;28;20225;-69
2023/03/25 05:44:27;;;;;;;2.30;1.13;;;7.10;99.90;;;;;;5013591;28;20446;-69
2023/03/25 05:46:52;;;;;;;3.17;1.00;;;7.20;99.90;;;;;;5013621;28;20437;-69
2023/03/25 05:49:18;;;;;;;3.30;1.20;;;7.20;99.90;;;;;;5012030;28;20240;-69
2023/03/25 05:51:43;;;;;;;3.10;1.10;;;7.20;99.90;;;;;;5010600;28;20183;-69
2023/03/25 05:54:09;;;;;;;4.83;1.50;;;7.30;99.90;;;;;;5012342;28;20170;-69
2023/03/25 05:56:38;;;;;;;4.20;1.43;;;7.30;99.90;;;;;;5012488;28;20178;-69
2023/03/25 05:59:04;;;;;;;5.33;1.30;;;7.20;99.90;;;;;;5011291;28;20680;-69
2023/03/25 06:01:32;;;;;;;4.93;1.93;;;7.10;99.90;;;;;;5012138;28;20429;-69
2023/03/25 06:03:59;;;;;;;4.07;1.10;;;7.00;99.90;;;;;;5012033;28;20685;-69
2023/03/25 06:06:26;;;;;;;1.87;1.30;;;7.00;99.90;;;;;;5011275;28;20430;-69
2023/03/25 06:08:51;;;;;;;3.50;1.50;;;7.10;99.90;;;;;;5005599;28;20430;-69
2023/03/25 06:11:18;;;;;;;2.13;1.10;;;7.20;99.90;;;;;;5012914;28;20445;-69
2023/03/25 06:13:48;;;;;;;2.47;0.83;;;7.20;99.90;;;;;;5013291;28;20191;-69
2023/03/25 06:16:19;;;;;;;3.80;1.07;;;7.20;99.90;;;;;;5012480;28;20442;-69
2023/03/25 06:18:55;;;;;;;3.20;1.83;;;7.20;99.90;;;;;;5011460;28;20461;-69
2023/03/25 06:21:22;;;;;;;5.20;1.23;;;7.30;99.90;;;;;;5006884;28;20889;-69
2023/03/25 06:23:48;;;;;;;4.87;1.50;;;7.30;99.90;;;;;;5012885;28;20441;-68
2023/03/25 06:26:17;;;;;;;1.67;1.10;;;7.40;99.90;;;;;;5011226;28;20875;-68
2023/03/25 06:28:43;;;;;;;3.00;1.40;;;7.40;99.90;;;;;;5012122;28;20426;-68
2023/03/25 06:31:21;;;;;;;5.67;0.90;;;7.50;99.90;;;;;;5011827;28;20449;-69
2023/03/25 06:33:48;;;;;;;1.73;0.80;;;7.50;99.90;;;;;;5011432;28;20449;-68
2023/03/25 06:36:17;;;;;;;3.93;1.00;;;7.50;99.90;;;;;;5011118;28;20442;-69
2023/03/25 06:38:47;;;;;;;3.40;0.90;;;7.50;99.90;;;;;;5011384;28;21028;-69
2023/03/25 06:41:14;;;;;;;2.13;1.10;;;7.70;99.90;;;;;;5009496;28;20466;-69
2023/03/25 06:43:40;;;;;;;5.43;0.90;;;7.80;99.90;;;;;;5010745;28;20982;-69
2023/03/25 06:46:06;;;;;;;3.13;1.40;;;8.10;99.90;;;;;;5011937;28;20488;-69
2023/03/25 06:48:32;;;;;;;3.70;0.80;;;8.30;99.90;;;;;;5010708;28;20183;-69
2023/03/25 06:50:57;;;;;;;2.73;1.40;;;8.60;99.90;;;;;;5012515;28;20532;-69
2023/03/25 06:53:23;;;;;;;5.80;1.20;;;8.80;99.90;;;;;;5011162;28;20222;-69
2023/03/25 06:55:49;;;;;;;2.27;1.20;;;9.00;99.90;;;;;;5011428;28;20187;-69
2023/03/25 06:58:14;;;;;;;2.90;1.50;;;9.20;99.90;;;;;;5011467;28;20237;-69
2023/03/25 07:00:40;;;;;;;3.93;1.27;;;9.30;99.90;;;;;;5011991;28;20699;-69
2023/03/25 07:03:05;;;;;;;2.33;1.20;;;9.40;99.90;;;;;;5010308;28;20208;-69
2023/03/25 07:05:31;;;;;;;4.90;1.53;;;9.50;99.90;;;;;;5010173;28;20969;-69
2023/03/25 07:07:57;;;;;;;3.03;1.20;;;9.70;99.90;;;;;;5012068;28;20183;-69
2023/03/25 07:10:22;;;;;;;3.60;1.33;;;9.70;99.90;;;;;;5011132;28;20191;-69
2023/03/25 07:12:48;;;;;;;1.20;1.00;;;9.70;99.90;;;;;;5011881;28;20472;-69
2023/03/25 07:15:14;;;;;;;1.80;0.90;;;9.40;99.90;;;;;;5010704;28;20194;-69
2023/03/25 07:17:41;;;;;;;1.80;1.10;;;9.10;99.90;;;;;;5011237;28;20201;-69
2023/03/25 07:20:08;;;;;;;4.83;1.77;;;8.90;99.90;;;;;;5008753;28;20461;-69
2023/03/25 07:22:33;;;;;;;5.23;1.53;;;8.80;99.90;;;;;;5011739;28;20463;-69
2023/03/25 07:24:59;;;;;;;2.30;1.00;;;8.80;99.90;;;;;;5011691;28;20516;-70
2023/03/25 07:27:25;;;;;;;2.03;1.30;;;8.80;99.90;;;;;;5010491;28;20183;-69
2023/03/25 07:29:51;;;;;;;1.33;0.90;;;8.90;99.90;;;;;;5007321;28;20253;-70
2023/03/25 07:32:17;;;;;;;1.90;1.07;;;8.90;99.90;;;;;;5008144;28;20207;-70
2023/03/25 07:34:42;;;;;;;3.33;1.17;;;9.00;99.90;;;;;;5009053;28;20225;-69
2023/03/25 07:37:08;;;;;;;1.67;1.27;;;9.00;99.90;;;;;;5008975;28;20187;-69
2023/03/25 07:39:34;;;;;;;1.90;0.93;;;9.00;99.90;;;;;;5008946;28;20687;-69
2023/03/25 07:41:59;;;;;;;1.40;0.83;;;8.90;99.90;;;;;;5011441;28;20230;-69
2023/03/25 07:44:25;;;;;;;1.93;1.10;;;8.80;99.90;;;;;;5011713;28;20477;-69
2023/03/25 07:46:50;;;;;;;2.60;1.17;;;8.80;99.90;;;;;;5005665;28;20193;-69
2023/03/25 07:49:17;;;;;;;2.43;0.80;;;8.90;99.90;;;;;;5013040;28;20726;-69
2023/03/25 07:51:44;;;;;;;1.80;1.00;;;8.90;99.90;;;;;;5008877;28;20195;-69
2023/03/25 07:54:10;;;;;;;1.87;0.80;;;9.10;99.90;;;;;;5001580;28;20442;-69
2023/03/25 07:56:36;;;;;;;1.10;0.87;;;9.50;99.90;;;;;;5006002;28;20513;-69
2023/03/25 07:59:02;;;;;;;1.33;0.77;;;10.00;99.90;;;;;;5002000;28;20525;-69
2023/03/25 08:01:27;;;;;;;1.00;0.80;;;10.30;99.90;;;;;;5009171;28;20649;-69
2023/03/25 08:03:53;;;;;;;1.20;1.00;;;10.40;99.90;;;;;;5011475;28;20433;-68
2023/03/25 08:06:19;;;;;;;1.43;0.90;;;10.50;99.90;;;;;;5009738;28;20194;-68
2023/03/25 08:08:44;;;;;;;4.10;1.00;;;10.40;99.90;;;;;;5008357;28;20670;-68
2023/03/25 08:11:10;;;;;;;1.03;0.90;;;10.00;99.90;;;;;;5010255;28;20667;-68
2023/03/25 08:13:35;;;;;;;3.10;1.03;;;9.90;99.90;;;;;;5011160;28;20209;-68
2023/03/25 08:16:01;;;;;;;1.47;0.80;;;9.90;99.90;;;;;;5015512;28;20187;-68
2023/03/25 08:18:27;;;;;;;1.10;1.00;;;10.20;99.90;;;;;;5014598;28;20187;-68
2023/03/25 08:20:52;;;;;;;1.20;0.87;;;10.40;99.90;;;;;;5013752;28;20217;-68
2023/03/25 08:23:19;;;;;;;2.30;1.17;;;10.60;99.90;;;;;;5005974;28;20210;-68
2023/03/25 08:25:49;;;;;;;2.00;1.00;;;10.80;99.90;;;;;;5014495;28;20217;-68
2023/03/25 08:28:21;;;;;;;1.40;0.80;;;10.80;99.90;;;;;;5014671;28;20467;-68
2023/03/25 08:30:48;;;;;;;1.30;1.03;;;10.80;99.90;;;;;;5008231;28;20464;-68
2023/03/25 08:33:15;;;;;;;1.20;0.77;;;10.60;99.90;;;;;;5011017;28;20449;-68
2023/03/25 08:35:41;;;;;;;2.03;1.00;;;10.30;99.90;;;;;;5008158;28;20441;-68
2023/03/25 08:38:07;;;;;;;2.73;0.83;;;10.00;99.90;;;;;;5014500;28;20429;-69
2023/03/25 08:40:34;;;;;;;2.50;1.87;;;9.60;99.90;;;;;;5019840;28;20535;-69
2023/03/25 08:43:02;;;;;;;1.70;1.60;;;9.10;99.90;;;;;;5011541;28;20461;-69
2023/03/25 08:45:28;;;;;;;5.90;0.90;;;8.60;99.90;;;;;;5013958;28;20553;-69
2023/03/25 08:47:53;;;;;;;0.93;0.87;;;8.40;99.90;;;;;;5014068;28;20573;-69
2023/03/25 08:50:19;;;;;;;1.00;0.90;;;8.30;99.90;;;;;;5013916;28;20190;-69
2023/03/25 08:52:46;;;;;;;1.50;1.40;;;8.40;99.90;;;;;;5013383;28;20246;-69
2023/03/25 08:55:15;;;;;;;2.10;0.80;;;8.70;99.90;;;;;;5010652;28;20456;-69
2023/03/25 08:57:41;;;;;;;1.13;0.80;;;8.80;99.90;;;;;;5006901;28;20739;-68
2023/03/25 09:00:13;;;;;;;1.37;0.80;;;8.70;99.90;;;;;;5021040;28;20904;-69
2023/03/25 09:02:40;;;;;;;3.10;2.30;;;8.60;99.90;;;;;;5006699;28;20876;-68
2023/03/25 09:05:07;;;;;;;3.63;1.23;;;8.50;99.90;;;;;;5005060;28;20442;-70
2023/03/25 09:07:32;;;;;;;4.40;1.20;;;8.30;99.90;;;;;;5011018;28;20500;-69
2023/03/25 09:09:58;;;;;;;1.03;1.00;;;8.20;99.90;;;;;;5005269;28;20989;-69
2023/03/25 09:12:24;;;;;;;1.53;1.10;;;8.10;99.90;;;;;;5012925;28;20286;-69
2023/03/25 09:14:49;;;;;;;1.43;0.80;;;8.00;99.90;;;;;;5010121;28;20656;-69
2023/03/25 09:17:15;;;;;;;1.10;0.77;;;8.00;99.90;;;;;;5013310;28;20198;-69
2023/03/25 09:19:40;;;;;;;1.10;0.90;;;8.20;99.90;;;;;;5011884;28;20202;-69
2023/03/25 09:22:06;;;;;;;1.43;0.97;;;8.40;99.90;;;;;;5011604;28;20572;-68
2023/03/25 09:24:32;;;;;;;2.80;1.13;;;9.00;99.90;;;;;;5013553;28;20196;-68
2023/03/25 09:27:00;;;;;;;1.40;1.00;;;9.30;99.90;;;;;;5009243;28;20179;-68
2023/03/25 09:29:26;;;;;;;2.10;0.80;;;9.40;99.90;;;;;;5013328;28;20521;-69
2023/03/25 09:31:51;;;;;;;2.53;1.47;;;9.20;99.90;;;;;;5014041;28;20477;-68
2023/03/25 09:34:17;;;;;;;4.17;1.03;;;9.10;99.90;;;;;;5012486;28;20441;-68
2023/03/25 09:36:44;;;;;;;2.60;1.57;;;9.10;99.90;;;;;;5013681;28;20182;-68
2023/03/25 09:39:10;;;;;;;4.30;1.50;;;9.50;99.90;;;;;;5013176;28;20194;-68
2023/03/25 09:42:05;;;;;;;3.80;1.73;;;9.90;99.90;;;;;;4997494;28;20442;-68
2023/03/25 09:44:36;;;;;;;0.97;0.93;;;9.90;99.90;;;;;;5014144;28;20675;-68
2023/03/25 09:47:03;;;;;;;2.43;1.17;;;9.80;99.90;;;;;;5007829;28;20425;-68
2023/03/25 09:49:52;;;;;;;1.23;0.80;;;10.10;99.90;;;;;;5011919;28;20927;-68
2023/03/25 09:52:33;;;;;;;4.07;1.30;;;10.40;99.90;;;;;;5043813;23;20476;-68
2023/03/25 09:55:04;;;;;;;1.97;1.10;;;10.90;99.90;;;;;;5027459;28;20460;-68
2023/03/25 09:57:32;;;;;;;3.93;1.23;;;11.00;99.90;;;;;;5029934;28;20436;-68
2023/03/25 10:00:00;;;;;;;2.40;1.40;;;11.10;99.90;;;;;;5027174;28;20526;-69
2023/03/25 10:02:36;;;;;;;1.53;1.03;;;11.40;99.90;;;;;;5028182;28;20802;-68
2023/03/25 10:05:27;;;;;;;1.13;0.90;;;11.90;99.90;;;;;;5012484;28;20841;-68
2023/03/25 10:07:52;;;;;;;3.43;1.33;;;12.10;99.90;;;;;;5005798;28;20444;-68
2023/03/25 10:10:26;;;;;;;1.10;1.00;;;12.20;99.90;;;;;;5007226;28;20438;-68
2023/03/25 10:13:04;;;;;;;3.53;1.10;;;12.30;99.90;;;;;;5003446;28;20203;-68
2023/03/25 10:15:39;;;;;;;2.10;1.00;;;12.50;99.90;;;;;;5004369;28;20453;-68
2023/03/25 10:18:47;;;;;;;1.20;1.10;;;13.40;99.90;;;;;;5010829;28;21037;-68
2023/03/25 10:21:36;;;;;;;1.10;0.90;;;14.40;99.90;;;;;;5005756;28;20469;-69
2023/03/25 10:24:20;;;;;;;2.30;1.30;;;15.20;99.90;;;;;;5002058;28;20484;-69
2023/03/25 10:27:08;;;;;;;8.03;7.33;;;16.00;99.90;;;;;;5006530;28;20434;-68
2023/03/25 10:29:41;;;;;;;1.80;1.20;;;15.60;99.90;;;;;;5006587;28;20866;-70
2023/03/25 10:32:15;;;;;;;2.03;1.30;;;14.40;99.90;;;;;;4999998;28;20449;-69
2023/03/25 10:34:48;;;;;;;1.70;1.03;;;13.90;99.90;;;;;;5000167;28;20492;-69
2023/03/25 10:37:23;;;;;;;3.40;2.27;;;14.20;99.90;;;;;;5000897;28;20501;-68
2023/03/25 10:39:49;;;;;;;1.13;0.93;;;15.10;99.90;;;;;;5003843;28;20523;-69
2023/03/25 10:42:29;;;;;;;3.30;1.03;;;15.50;99.90;;;;;;4998196;28;20504;-70
2023/03/25 10:44:55;;;;;;;1.20;0.80;;;15.60;99.90;;;;;;5010574;28;20429;-68
2023/03/25 10:47:29;;;;;;;2.30;1.63;;;15.50;99.90;;;;;;5012464;28;20856;-68
2023/03/25 10:49:58;;;;;;;1.07;0.70;;;15.30;99.90;;;;;;5008983;28;20438;-67
2023/03/25 10:52:24;;;;;;;2.37;1.40;;;14.50;99.90;;;;;;5011737;28;20469;-68
2023/03/25 10:54:54;;;;;;;2.10;1.20;;;13.70;99.90;;;;;;5007961;28;20470;-68
2023/03/25 10:57:27;;;;;;;1.93;1.20;;;13.10;99.90;;;;;;5011547;28;20458;-68
2023/03/25 11:00:11;;;;;;;1.53;0.90;;;12.90;99.90;;;;;;5011276;28;20462;-68
2023/03/25 11:02:37;;;;;;;1.23;1.10;;;13.10;99.90;;;;;;5008082;28;20460;-69
2023/03/25 11:05:06;;;;;;;3.30;0.97;;;13.70;99.90;;;;;;5012231;28;20437;-69
2023/03/25 11:07:35;;;;;;;0.60;0.60;;;13.70;99.90;;;;;;5012155;28;20214;-69
2023/03/25 11:10:14;;;;;;;1.23;0.70;;;13.60;99.90;;;;;;5011432;28;20438;-69
2023/03/25 11:12:44;;;;;;;0.90;0.60;;;14.10;99.90;;;;;;5008733;28;20457;-69
2023/03/25 11:15:25;;;;;;;1.00;0.90;;;14.50;99.90;;;;;;5009037;28;20468;-69
2023/03/25 11:18:00;;;;;;;2.30;0.90;;;14.40;99.90;;;;;;5011963;28;20500;-68
2023/03/25 11:20:38;;;;;;;1.13;1.03;;;15.60;99.90;;;;;;5011158;28;20552;-69
2023/03/25 11:23:07;;;;;;;1.23;0.80;;;15.70;99.90;;;;;;5011411;28;20584;-68
2023/03/25 11:25:40;;;;;;;1.47;1.07;;;16.60;99.90;;;;;;5011863;28;21010;-69
2023/03/25 11:28:26;;;;;;;1.50;1.40;;;16.90;99.90;;;;;;5010845;28;20934;-69
2023/03/25 11:31:12;;;;;;;1.37;0.93;;;16.30;99.90;;;;;;5008746;28;20434;-69
2023/03/25 11:33:40;;;;;;;1.70;1.30;;;15.20;99.90;;;;;;5004010;28;20627;-69
2023/03/25 11:36:25;;;;;;;1.63;1.43;;;14.50;99.90;;;;;;5009980;28;20814;-69
2023/03/25 11:39:00;;;;;;;2.03;1.50;;;14.80;99.90;;;;;;5004254;28;20969;-70
2023/03/25 11:41:34;;;;;;;1.03;0.93;;;16.10;99.90;;;;;;4999262;28;20470;-69
2023/03/25 11:44:01;;;;;;;1.23;1.03;;;16.60;99.90;;;;;;4999461;28;20513;-71
2023/03/25 11:46:27;;;;;;;2.43;1.20;;;17.40;99.90;;;;;;4998862;28;20442;-69
2023/03/25 11:48:52;;;;;;;0.70;0.70;;;18.10;98.40;;;;;;4994431;28;20508;-69
2023/03/25 11:51:22;;;;;;;1.23;1.03;;;18.60;94.20;;;;;;5006254;28;20193;-68
2023/03/25 11:53:57;;;;;;;2.00;1.90;;;18.20;94.90;;;;;;5007562;28;20628;-68
2023/03/25 11:56:31;;;;;;;1.20;1.20;;;18.90;93.70;;;;;;4996974;28;20519;-68
2023/03/25 11:59:00;;;;;;;1.27;1.00;;;19.10;92.20;;;;;;4995378;28;20935;-68
2023/03/25 12:01:39;;;;;;;2.97;1.30;;;17.90;94.60;;;;;;5009181;28;20466;-68
2023/03/25 12:04:11;;;;;;;3.43;1.20;;;17.50;95.20;;;;;;5006962;28;20453;-69
2023/03/25 12:06:51;;;;;;;1.70;1.23;;;17.90;95.10;;;;;;5002577;28;20434;-68
2023/03/25 12:09:16;;;;;;;1.70;1.50;;;18.00;96.00;;;;;;5003462;28;20831;-69
2023/03/25 12:11:56;;;;;;;1.23;1.13;;;19.20;92.40;;;;;;4996562;28;20439;-68
2023/03/25 12:14:48;;;;;;;1.30;1.00;;;19.70;88.90;;;;;;4996983;28;20203;-68
2023/03/25 12:17:45;;;;;;;2.97;1.03;;;18.20;90.40;;;;;;5001305;28;20446;-68
2023/03/25 12:20:34;;;;;;;1.77;1.13;;;18.00;90.20;;;;;;5000572;28;21050;-68
2023/03/25 12:23:28;;;;;;;2.40;0.93;;;18.20;92.00;;;;;;5002880;28;20485;-68
2023/03/25 12:26:08;;;;;;;1.27;1.20;;;19.30;86.70;;;;;;5004143;28;20441;-68
2023/03/25 12:29:10;;;;;;;1.10;1.00;;;18.10;90.00;;;;;;5004356;28;20437;-68
2023/03/25 12:31:54;;;;;;;1.37;1.20;;;17.00;91.90;;;;;;4969649;28;20439;-68
2023/03/25 12:34:46;;;;;;;1.67;1.50;;;16.40;94.60;;;;;;5008769;28;20461;-67
2023/03/25 12:37:51;;;;;;;2.30;1.10;;;16.70;94.60;;;;;;5002327;28;20442;-69
2023/03/25 12:40:41;;;;;;;1.30;1.20;;;16.60;94.80;;;;;;5008975;28;21022;-69
2023/03/25 12:43:16;;;;;;;2.43;2.23;;;16.20;93.90;;;;;;5010546;28;20541;-69
2023/03/25 12:45:52;;;;;;;7.00;1.43;;;15.40;99.50;;;;;;5004076;28;20448;-69
2023/03/25 12:48:44;;;;;;;2.03;1.00;;;14.40;99.90;;;;;;5009428;28;20437;-69
2023/03/25 12:51:38;;;;;;;3.77;1.33;;;12.40;99.90;;;;;;5009157;28;20441;-70
2023/03/25 12:54:40;;;;;;;2.70;1.00;;;11.40;99.90;;;;;;5006662;28;20488;-68
2023/03/25 12:57:24;;;;;;;1.50;1.30;;;12.10;99.90;;;;;;5006853;28;20777;-70
2023/03/25 12:59:59;;;;;;;2.53;1.23;;;13.40;99.90;;;;;;5010058;28;20479;-67
2023/03/25 13:02:37;;;;;;;1.13;0.90;;;15.10;99.90;;;;;;5010155;28;20476;-68
2023/03/25 13:05:03;;;;;;;1.37;0.97;;;16.90;99.90;;;;;;5014021;28;20801;-68
2023/03/25 13:07:39;;;;;;;0.90;0.90;;;18.40;99.90;;;;;;5013999;28;20438;-68
2023/03/25 13:10:11;;;;;;;1.53;1.10;;;20.20;98.10;;;;;;5013384;28;20696;-68
2023/03/25 13:12:49;;;;;;;1.17;0.87;;;21.10;93.60;;;;;;5011069;28;20445;-68
2023/03/25 13:15:20;;;;;;;1.10;1.00;;;20.70;91.50;;;;;;5012943;28;20528;-69